Time;durP1;ratioP1;P1;durP2;ratioP2;P2;SDS_P1;SDS_P2;PMS_P1;PMS_P2;Temp;Humidity;BMP_temperature;BMP_pressure;BME280_temperature;BME280_humidity;BME280_pressure;Samples;Min_cycle;Max_cycle;Signal;HPM_P1;HPM_P2
2023/06/15 00:00:48;;;;;;;4.05;1.98;;;18.90;94.10;;;;;;4996696;28;20025;-94
2023/06/15 00:03:15;;;;;;;6.13;2.28;;;18.80;94.20;;;;;;5023631;28;20113;-91
2023/06/15 00:05:40;;;;;;;5.68;2.33;;;18.70;94.20;;;;;;5013640;28;20046;-92
2023/06/15 00:08:06;;;;;;;7.00;2.25;;;18.70;94.40;;;;;;5014910;28;20034;-94
2023/06/15 00:10:32;;;;;;;5.72;2.13;;;18.70;94.60;;;;;;4999954;28;20425;-93
2023/06/15 00:12:58;;;;;;;10.23;2.20;;;18.60;94.60;;;;;;5002968;28;20038;-93
2023/06/15 00:15:27;;;;;;;8.27;2.65;;;18.60;94.60;;;;;;5000884;28;20068;-92
2023/06/15 00:17:54;;;;;;;5.07;2.10;;;18.50;94.60;;;;;;5018405;28;20037;-93
2023/06/15 00:20:22;;;;;;;6.80;2.03;;;18.50;94.60;;;;;;4997761;28;20061;-93
2023/06/15 00:22:49;;;;;;;5.82;1.85;;;18.50;94.70;;;;;;5014964;28;20042;-93
2023/06/15 00:25:15;;;;;;;4.43;1.90;;;18.40;94.70;;;;;;5009104;28;20038;-93
2023/06/15 00:27:42;;;;;;;4.68;2.58;;;18.40;94.80;;;;;;4996249;28;20057;-91
2023/06/15 00:30:10;;;;;;;4.88;2.00;;;18.30;94.70;;;;;;4985237;28;20065;-92
2023/06/15 00:32:36;;;;;;;5.13;2.30;;;18.30;95.00;;;;;;5015179;28;20060;-91
2023/06/15 00:35:02;;;;;;;5.10;2.40;;;18.30;95.20;;;;;;5012529;28;20034;-91
2023/06/15 00:37:28;;;;;;;6.10;2.35;;;18.20;95.10;;;;;;5015244;28;20042;-92
2023/06/15 00:39:55;;;;;;;6.72;2.40;;;18.20;95.00;;;;;;5011654;28;20085;-90
2023/06/15 00:42:20;;;;;;;5.68;2.05;;;18.20;95.10;;;;;;5009800;28;20157;-92
2023/06/15 00:44:46;;;;;;;4.78;2.13;;;18.20;95.00;;;;;;4997313;28;20314;-90
2023/06/15 00:47:13;;;;;;;6.88;3.00;;;18.20;95.10;;;;;;5017132;28;20044;-92
2023/06/15 00:49:39;;;;;;;9.05;3.03;;;18.20;95.10;;;;;;5002639;28;20197;-90
2023/06/15 00:52:05;;;;;;;7.13;2.80;;;18.10;95.20;;;;;;5007096;28;20042;-91
2023/06/15 00:54:33;;;;;;;8.05;2.97;;;18.20;95.20;;;;;;5013076;28;20101;-91
2023/06/15 00:57:00;;;;;;;6.22;2.50;;;18.00;95.40;;;;;;4994741;28;20045;-90
2023/06/15 00:59:28;;;;;;;6.90;3.35;;;18.00;95.30;;;;;;5004800;28;20053;-91
2023/06/15 01:01:54;;;;;;;9.63;2.95;;;18.00;95.30;;;;;;5012977;28;20044;-91
2023/06/15 01:04:26;;;;;;;9.20;3.40;;;18.00;95.60;;;;;;4985036;28;20042;-91
2023/06/15 01:07:01;;;;;;;6.88;2.92;;;17.90;95.50;;;;;;5011287;28;20056;-92
2023/06/15 01:09:33;;;;;;;7.85;3.42;;;18.00;95.60;;;;;;4973018;28;20046;-90
2023/06/15 01:12:05;;;;;;;7.78;3.03;;;17.90;95.60;;;;;;4992949;28;20046;-91
2023/06/15 01:14:33;;;;;;;7.78;3.42;;;17.90;95.50;;;;;;5009990;28;20081;-91
2023/06/15 01:17:05;;;;;;;7.28;3.38;;;17.90;95.80;;;;;;5006958;28;20038;-91
2023/06/15 01:19:53;;;;;;;5.45;2.67;;;17.90;95.70;;;;;;5016128;28;20416;-90
2023/06/15 01:22:35;;;;;;;7.07;2.88;;;17.90;95.60;;;;;;4998516;28;20082;-90
2023/06/15 01:25:10;;;;;;;5.75;3.30;;;17.90;95.70;;;;;;5008125;28;20064;-90
2023/06/15 01:27:39;;;;;;;5.82;2.35;;;17.90;95.60;;;;;;4986211;28;20046;-91
2023/06/15 01:30:07;;;;;;;6.63;2.50;;;17.80;95.70;;;;;;5011229;28;20059;-91
2023/06/15 01:32:34;;;;;;;6.50;3.25;;;17.80;95.80;;;;;;5006768;28;20039;-90
2023/06/15 01:35:00;;;;;;;6.93;2.53;;;17.80;95.70;;;;;;4992810;28;20096;-92
2023/06/15 01:37:26;;;;;;;6.45;3.20;;;17.80;96.10;;;;;;5007107;28;20029;-90
2023/06/15 01:39:52;;;;;;;6.80;3.33;;;17.70;96.10;;;;;;4988289;28;20130;-90
2023/06/15 01:42:18;;;;;;;4.97;2.50;;;17.70;96.00;;;;;;5005112;28;20539;-90
2023/06/15 01:44:45;;;;;;;7.60;3.13;;;17.60;95.80;;;;;;5012050;28;20053;-91
2023/06/15 01:47:11;;;;;;;7.53;2.40;;;17.60;96.10;;;;;;4989877;28;20049;-90
2023/06/15 01:49:38;;;;;;;4.32;2.60;;;17.70;96.10;;;;;;5005014;28;20626;-90
2023/06/15 01:52:05;;;;;;;8.00;2.75;;;17.60;95.90;;;;;;5004335;28;20053;-91
2023/06/15 01:54:33;;;;;;;6.22;3.03;;;17.60;96.10;;;;;;4989945;28;20046;-91
2023/06/15 01:56:59;;;;;;;6.25;2.80;;;17.60;96.10;;;;;;5007543;28;20084;-91
2023/06/15 01:59:25;;;;;;;7.65;2.47;;;17.60;96.00;;;;;;4994073;28;20068;-90
2023/06/15 02:01:50;;;;;;;9.02;2.97;;;17.50;96.20;;;;;;5014877;28;20053;-90
2023/06/15 02:04:16;;;;;;;7.55;3.05;;;17.50;96.30;;;;;;4988068;28;20038;-89
2023/06/15 02:06:42;;;;;;;6.03;3.50;;;17.50;96.40;;;;;;5005981;28;20038;-90
2023/06/15 02:09:08;;;;;;;7.63;3.28;;;17.50;96.60;;;;;;4988885;28;20116;-90
2023/06/15 02:11:33;;;;;;;7.47;3.47;;;17.40;96.40;;;;;;4992886;28;20057;-90
2023/06/15 02:13:59;;;;;;;7.03;3.38;;;17.30;96.80;;;;;;4986961;28;20056;-90
2023/06/15 02:16:26;;;;;;;7.50;3.00;;;17.30;96.70;;;;;;4994612;28;20034;-89
2023/06/15 02:18:52;;;;;;;8.55;3.28;;;17.20;96.80;;;;;;5003925;28;20038;-90
2023/06/15 02:21:18;;;;;;;9.98;3.25;;;17.20;97.20;;;;;;5003979;28;20037;-89
2023/06/15 02:23:45;;;;;;;8.88;3.03;;;17.10;96.90;;;;;;4998775;28;20034;-90
2023/06/15 02:26:11;;;;;;;6.60;3.42;;;17.10;96.90;;;;;;5006074;28;20060;-89
2023/06/15 02:28:37;;;;;;;6.68;3.40;;;17.10;97.30;;;;;;5008077;28;20034;-89
2023/06/15 02:31:02;;;;;;;6.47;2.90;;;17.10;97.00;;;;;;5003928;28;20384;-89
2023/06/15 02:33:28;;;;;;;4.90;2.55;;;17.00;97.20;;;;;;4991991;28;20054;-88
2023/06/15 02:35:54;;;;;;;9.43;3.45;;;17.00;96.90;;;;;;4985438;28;20056;-89
2023/06/15 02:38:20;;;;;;;8.13;3.55;;;17.00;97.10;;;;;;4980652;28;20052;-89
2023/06/15 02:40:46;;;;;;;5.13;2.97;;;17.00;97.20;;;;;;5007929;28;20527;-89
2023/06/15 02:43:11;;;;;;;6.30;3.42;;;17.00;97.30;;;;;;5005560;28;20034;-89
2023/06/15 02:45:37;;;;;;;5.80;2.50;;;16.90;97.30;;;;;;5000646;28;20038;-89
2023/06/15 02:48:03;;;;;;;6.13;3.42;;;16.90;97.30;;;;;;4973689;28;20034;-88
2023/06/15 02:50:29;;;;;;;7.63;3.33;;;16.90;97.50;;;;;;5003498;28;20050;-88
2023/06/15 02:52:55;;;;;;;7.20;2.95;;;16.80;97.50;;;;;;5000737;28;20050;-89
2023/06/15 02:55:21;;;;;;;8.18;3.35;;;16.80;97.50;;;;;;4994355;28;20098;-89
2023/06/15 02:57:47;;;;;;;9.20;3.88;;;16.80;97.30;;;;;;4993031;28;20053;-89
2023/06/15 03:00:13;;;;;;;6.90;3.60;;;16.80;97.70;;;;;;5001241;28;20500;-89
2023/06/15 03:02:43;;;;;;;7.88;3.28;;;16.80;97.80;;;;;;5006319;28;20034;-89
2023/06/15 03:05:09;;;;;;;7.05;3.00;;;16.80;97.50;;;;;;5002576;28;20038;-89
2023/06/15 03:07:35;;;;;;;5.50;3.40;;;16.80;97.50;;;;;;5000992;28;20050;-90
2023/06/15 03:10:01;;;;;;;6.45;3.70;;;16.80;97.60;;;;;;5004993;28;20042;-88
2023/06/15 03:12:27;;;;;;;10.77;3.80;;;16.80;97.80;;;;;;5002261;28;20052;-89
2023/06/15 03:14:53;;;;;;;7.25;3.70;;;16.80;98.10;;;;;;4992796;28;20161;-89
2023/06/15 03:17:21;;;;;;;7.28;3.45;;;16.70;98.10;;;;;;4993235;28;20049;-89
2023/06/15 03:19:47;;;;;;;7.00;3.30;;;16.70;97.90;;;;;;4985192;28;20112;-89
2023/06/15 03:22:14;;;;;;;7.65;3.58;;;16.70;97.60;;;;;;5005390;28;20164;-89
2023/06/15 03:24:41;;;;;;;7.03;3.58;;;16.70;98.00;;;;;;5000633;28;20104;-89
2023/06/15 03:27:09;;;;;;;6.72;3.67;;;16.60;98.20;;;;;;4989992;28;20065;-89
2023/06/15 03:29:36;;;;;;;9.90;3.83;;;16.60;98.10;;;;;;4983056;28;20089;-89
2023/06/15 03:32:04;;;;;;;6.32;3.03;;;16.60;98.30;;;;;;5003717;28;20109;-88
2023/06/15 03:34:30;;;;;;;5.53;2.67;;;16.60;98.20;;;;;;4998603;28;20085;-89
2023/06/15 03:36:56;;;;;;;7.05;2.92;;;16.60;98.00;;;;;;5005910;28;20038;-89
2023/06/15 03:39:22;;;;;;;6.53;3.55;;;16.60;98.20;;;;;;5003423;28;20045;-89
2023/06/15 03:41:48;;;;;;;7.97;3.22;;;16.60;98.60;;;;;;4987582;28;20034;-88
2023/06/15 03:44:14;;;;;;;7.80;3.00;;;16.50;98.50;;;;;;5003070;28;20035;-89
2023/06/15 03:46:41;;;;;;;8.88;4.10;;;16.50;98.50;;;;;;4999574;28;20042;-88
2023/06/15 03:49:10;;;;;;;7.57;3.00;;;16.50;98.90;;;;;;5006013;28;20053;-89
2023/06/15 03:51:37;;;;;;;7.93;3.35;;;16.50;98.60;;;;;;5006607;28;20412;-88
2023/06/15 03:54:04;;;;;;;8.65;4.05;;;16.40;98.50;;;;;;4983013;28;20089;-88
2023/06/15 03:56:30;;;;;;;5.32;2.90;;;16.50;98.70;;;;;;5002886;28;20053;-88
2023/06/15 03:58:56;;;;;;;11.05;3.90;;;16.50;98.50;;;;;;4990015;28;20109;-88
2023/06/15 04:01:24;;;;;;;6.32;3.28;;;16.50;98.50;;;;;;4986689;28;20453;-88
2023/06/15 04:03:51;;;;;;;6.50;3.35;;;16.50;98.10;;;;;;4987077;28;20128;-88
2023/06/15 04:06:17;;;;;;;7.53;3.60;;;16.50;98.80;;;;;;4988815;28;20075;-86
2023/06/15 04:08:43;;;;;;;5.80;3.25;;;16.50;98.80;;;;;;5000371;28;20089;-88
2023/06/15 04:11:09;;;;;;;8.48;3.72;;;16.50;98.80;;;;;;4993721;28;20038;-88
2023/06/15 04:13:35;;;;;;;7.57;4.00;;;16.40;98.80;;;;;;4999368;28;20121;-88
2023/06/15 04:16:01;;;;;;;6.07;3.38;;;16.50;99.10;;;;;;5009894;28;20690;-88
2023/06/15 04:18:30;;;;;;;8.63;3.67;;;16.40;99.00;;;;;;5006177;28;20038;-87
2023/06/15 04:20:55;;;;;;;7.13;3.75;;;16.50;98.90;;;;;;5010473;28;20057;-86
2023/06/15 04:23:22;;;;;;;8.20;3.50;;;16.40;99.10;;;;;;5004696;28;20116;-88
2023/06/15 04:25:48;;;;;;;6.72;3.17;;;16.40;99.10;;;;;;4970710;28;20050;-87
2023/06/15 04:28:14;;;;;;;7.90;3.78;;;16.40;98.80;;;;;;4988220;28;20052;-87
2023/06/15 04:30:40;;;;;;;6.60;3.05;;;16.40;99.10;;;;;;4992436;28;20049;-87
2023/06/15 04:33:12;;;;;;;7.90;3.75;;;16.40;99.10;;;;;;5008879;28;20206;-86
2023/06/15 04:35:40;;;;;;;7.53;3.10;;;16.40;99.60;;;;;;4994895;28;20034;-88
2023/06/15 04:38:06;;;;;;;9.35;3.90;;;16.40;99.50;;;;;;4994808;28;20069;-87
2023/06/15 04:40:32;;;;;;;10.40;3.65;;;16.40;99.40;;;;;;4976910;28;20410;-86
2023/06/15 04:42:58;;;;;;;9.18;3.72;;;16.40;99.90;;;;;;4998722;28;20042;-86
2023/06/15 04:45:24;;;;;;;7.50;2.90;;;16.40;99.30;;;;;;4984817;28;20042;-85
2023/06/15 04:47:50;;;;;;;10.52;4.38;;;16.40;99.40;;;;;;4985115;28;20046;-86
2023/06/15 04:50:16;;;;;;;8.05;3.58;;;16.40;99.70;;;;;;4989633;28;20042;-87
2023/06/15 04:52:42;;;;;;;4.90;2.97;;;16.40;99.50;;;;;;4978797;28;20042;-85
2023/06/15 04:55:08;;;;;;;6.93;2.97;;;16.40;99.40;;;;;;5011150;28;20149;-87
2023/06/15 04:57:34;;;;;;;7.00;3.20;;;16.50;99.50;;;;;;4986931;28;20042;-87
2023/06/15 05:00:00;;;;;;;6.80;3.25;;;16.50;99.10;;;;;;4998907;28;20050;-87
2023/06/15 05:02:26;;;;;;;5.88;3.00;;;16.60;99.40;;;;;;4988367;28;20046;-87
2023/06/15 05:04:57;;;;;;;9.85;3.88;;;16.50;99.50;;;;;;5010849;28;20037;-86
2023/06/15 05:07:23;;;;;;;9.77;3.45;;;16.50;99.70;;;;;;5008986;28;20120;-86
2023/06/15 05:09:48;;;;;;;7.97;3.38;;;16.60;99.20;;;;;;5006260;28;20052;-86
2023/06/15 05:12:14;;;;;;;7.45;2.60;;;16.60;99.00;;;;;;4997269;28;20444;-85
2023/06/15 05:14:40;;;;;;;7.72;3.03;;;16.60;98.90;;;;;;5006529;28;20050;-86
2023/06/15 05:17:06;;;;;;;6.22;3.65;;;16.60;98.50;;;;;;4999982;28;20046;-86
2023/06/15 05:19:32;;;;;;;7.28;3.72;;;16.70;98.90;;;;;;4996315;28;20057;-86
2023/06/15 05:22:07;;;;;;;11.02;3.28;;;16.60;98.70;;;;;;4991997;28;20053;-86
2023/06/15 05:24:34;;;;;;;7.38;3.83;;;16.70;98.70;;;;;;4980974;28;20043;-87
2023/06/15 05:27:02;;;;;;;9.43;3.53;;;16.70;98.90;;;;;;4987863;28;20054;-86
2023/06/15 05:29:28;;;;;;;7.47;2.80;;;16.70;99.20;;;;;;4984606;28;20069;-86
2023/06/15 05:31:59;;;;;;;6.70;3.00;;;16.70;98.90;;;;;;4987432;28;20038;-87
2023/06/15 05:34:26;;;;;;;6.80;2.97;;;16.80;98.60;;;;;;4970439;28;20046;-88
2023/06/15 05:36:51;;;;;;;8.02;3.00;;;16.80;98.70;;;;;;4988419;28;20057;-87
2023/06/15 05:39:18;;;;;;;7.68;3.15;;;16.80;98.30;;;;;;4987720;28;20375;-87
2023/06/15 05:41:44;;;;;;;6.47;2.90;;;16.80;98.20;;;;;;4986116;28;20094;-87
2023/06/15 05:44:09;;;;;;;6.10;2.47;;;16.80;98.00;;;;;;4979899;28;20409;-87
2023/06/15 05:46:35;;;;;;;7.75;3.63;;;16.90;97.90;;;;;;4990315;28;20050;-86
2023/06/15 05:49:01;;;;;;;4.65;2.65;;;16.90;98.00;;;;;;4985937;28;20047;-87
2023/06/15 05:51:27;;;;;;;6.03;2.88;;;17.00;98.10;;;;;;4984987;28;20077;-87
2023/06/15 05:53:53;;;;;;;4.38;2.55;;;16.90;97.90;;;;;;4986578;28;20401;-88
2023/06/15 05:56:18;;;;;;;7.35;3.40;;;17.00;97.70;;;;;;4986390;28;20030;-88
2023/06/15 05:58:44;;;;;;;6.15;3.03;;;17.00;97.90;;;;;;4993031;28;20523;-87
2023/06/15 06:01:10;;;;;;;8.90;4.05;;;17.00;98.00;;;;;;4984215;28;20054;-87
2023/06/15 06:03:35;;;;;;;7.55;3.50;;;17.00;98.30;;;;;;4978467;28;20038;-88
2023/06/15 06:06:02;;;;;;;7.78;4.68;;;17.00;97.80;;;;;;4983406;28;20383;-87
2023/06/15 06:08:27;;;;;;;8.07;4.15;;;17.00;97.60;;;;;;4981319;28;20046;-87
2023/06/15 06:10:53;;;;;;;6.55;2.75;;;17.10;97.60;;;;;;4987186;28;20101;-87
2023/06/15 06:13:19;;;;;;;5.88;2.50;;;17.10;97.70;;;;;;4979244;28;20454;-87
2023/06/15 06:15:44;;;;;;;8.27;2.63;;;17.10;97.40;;;;;;4980005;28;20053;-87
2023/06/15 06:18:10;;;;;;;7.18;3.38;;;17.20;97.10;;;;;;4980709;28;20089;-87
2023/06/15 06:20:36;;;;;;;6.10;3.00;;;17.20;97.10;;;;;;4999161;28;20050;-86
2023/06/15 06:23:03;;;;;;;12.07;4.32;;;17.20;97.10;;;;;;4985628;28;20560;-85
2023/06/15 06:25:29;;;;;;;9.35;4.05;;;17.20;97.20;;;;;;4986064;28;20065;-87
2023/06/15 06:27:54;;;;;;;8.45;2.97;;;17.30;97.30;;;;;;5003378;28;20076;-87
2023/06/15 06:30:20;;;;;;;8.40;3.45;;;17.30;97.20;;;;;;4964950;28;20728;-86
2023/06/15 06:32:46;;;;;;;8.77;2.90;;;17.30;97.00;;;;;;4985511;28;20545;-87
2023/06/15 06:35:11;;;;;;;6.28;3.28;;;17.40;97.10;;;;;;4962903;28;20398;-86
2023/06/15 06:37:37;;;;;;;8.02;3.08;;;17.40;96.90;;;;;;5006374;28;20049;-91
2023/06/15 06:40:03;;;;;;;5.22;2.65;;;17.60;96.80;;;;;;5006451;28;20085;-92
2023/06/15 06:42:29;;;;;;;8.85;3.70;;;17.50;96.70;;;;;;4982384;28;20049;-91
2023/06/15 06:44:56;;;;;;;6.97;3.40;;;17.60;96.80;;;;;;4971428;28;20050;-91
2023/06/15 06:47:21;;;;;;;7.13;3.22;;;17.60;96.60;;;;;;4987755;28;20143;-89
2023/06/15 06:49:47;;;;;;;6.07;3.13;;;17.70;96.60;;;;;;4995220;28;20042;-88
2023/06/15 06:52:13;;;;;;;8.10;3.28;;;17.70;96.50;;;;;;4989041;28;20045;-91
2023/06/15 06:54:38;;;;;;;6.95;3.55;;;17.80;96.40;;;;;;4998936;28;20149;-91
2023/06/15 06:57:05;;;;;;;6.35;3.15;;;17.90;96.40;;;;;;4987872;28;20065;-89
2023/06/15 06:59:30;;;;;;;8.95;2.92;;;17.90;96.20;;;;;;4972769;28;20042;-88
2023/06/15 07:01:56;;;;;;;5.75;2.75;;;18.00;96.00;;;;;;4988231;28;20113;-86
2023/06/15 07:04:22;;;;;;;6.40;2.50;;;18.00;95.80;;;;;;4997253;28;20077;-86
2023/06/15 07:06:47;;;;;;;6.28;2.72;;;18.10;95.70;;;;;;4990577;28;20521;-87
2023/06/15 07:09:13;;;;;;;6.32;2.70;;;18.30;95.80;;;;;;5003457;28;20046;-86
2023/06/15 07:11:39;;;;;;;5.97;2.83;;;18.50;95.80;;;;;;4995371;28;20106;-87
2023/06/15 07:14:04;;;;;;;9.55;2.67;;;18.70;95.80;;;;;;4990280;28;20096;-87
2023/06/15 07:16:30;;;;;;;6.72;2.75;;;18.90;95.50;;;;;;4990518;28;20045;-86
2023/06/15 07:18:57;;;;;;;7.65;3.00;;;19.30;95.30;;;;;;4975084;28;20043;-86
2023/06/15 07:21:23;;;;;;;8.82;2.75;;;19.70;94.20;;;;;;4997150;28;20049;-87
2023/06/15 07:23:48;;;;;;;9.43;3.15;;;20.10;94.20;;;;;;4998849;28;20132;-86
2023/06/15 07:26:14;;;;;;;5.85;2.03;;;20.40;94.10;;;;;;4987872;28;20634;-86
2023/06/15 07:28:40;;;;;;;5.60;2.60;;;20.70;93.50;;;;;;4978732;28;20124;-87
2023/06/15 07:31:05;;;;;;;7.20;2.38;;;21.00;93.30;;;;;;4995417;28;20543;-91
2023/06/15 07:33:31;;;;;;;8.05;2.65;;;21.30;93.20;;;;;;4983678;28;20484;-88
2023/06/15 07:35:57;;;;;;;8.43;2.63;;;21.60;92.80;;;;;;4982850;28;20046;-88
2023/06/15 07:38:22;;;;;;;7.63;2.42;;;21.90;92.60;;;;;;4999921;28;20046;-90
2023/06/15 07:40:48;;;;;;;9.82;2.60;;;22.20;91.90;;;;;;4999108;28;20038;-87
2023/06/15 07:43:14;;;;;;;6.65;2.72;;;22.30;91.90;;;;;;5003186;28;20460;-91
2023/06/15 07:45:41;;;;;;;10.52;2.70;;;22.50;91.20;;;;;;5011061;28;20030;-90
2023/06/15 07:48:07;;;;;;;7.22;2.80;;;22.70;91.30;;;;;;5000234;28;20042;-89
2023/06/15 07:50:33;;;;;;;7.00;2.22;;;22.80;91.30;;;;;;4986590;28;20053;-91
2023/06/15 07:52:59;;;;;;;7.47;2.70;;;22.90;91.10;;;;;;4985292;28;20050;-90
2023/06/15 07:55:24;;;;;;;4.18;2.22;;;23.10;91.30;;;;;;5007514;28;20042;-90
2023/06/15 07:57:51;;;;;;;6.75;2.05;;;23.20;91.20;;;;;;5000382;28;20394;-92
2023/06/15 08:00:18;;;;;;;5.97;2.58;;;23.30;91.10;;;;;;5001800;28;20046;-91
2023/06/15 08:02:43;;;;;;;6.72;2.25;;;23.50;90.90;;;;;;5007410;28;20069;-90
2023/06/15 08:05:09;;;;;;;6.60;2.20;;;23.50;90.60;;;;;;4996267;28;20049;-94
2023/06/15 08:07:36;;;;;;;4.55;2.20;;;23.60;90.50;;;;;;4990659;28;20448;-93
2023/06/15 08:10:02;;;;;;;5.68;2.38;;;23.70;89.40;;;;;;4997338;28;20058;-92
2023/06/15 08:12:28;;;;;;;6.43;2.38;;;23.70;89.60;;;;;;4986074;28;20364;-93
2023/06/15 08:14:54;;;;;;;9.75;2.38;;;23.70;89.80;;;;;;5000622;28;20053;-93
2023/06/15 08:17:20;;;;;;;6.97;2.38;;;23.80;89.20;;;;;;5002898;28;20070;-92
2023/06/15 08:19:47;;;;;;;6.50;2.50;;;23.90;89.40;;;;;;5005051;28;20046;-92
2023/06/15 08:22:13;;;;;;;7.10;2.67;;;23.90;89.80;;;;;;4988698;28;20042;-89
2023/06/15 08:24:39;;;;;;;6.78;2.45;;;23.90;89.70;;;;;;5012093;28;20046;-88
2023/06/15 08:27:05;;;;;;;6.72;2.40;;;23.80;87.40;;;;;;4993257;28;20046;-90
2023/06/15 08:29:31;;;;;;;7.07;2.28;;;23.80;87.90;;;;;;4994880;28;20050;-90
2023/06/15 08:31:57;;;;;;;6.32;2.65;;;23.80;87.60;;;;;;4976166;28;20170;-91
2023/06/15 08:34:22;;;;;;;6.93;2.42;;;23.80;88.60;;;;;;4997562;28;20061;-89
2023/06/15 08:36:49;;;;;;;8.52;2.25;;;23.80;89.20;;;;;;4999753;28;20041;-90
2023/06/15 08:39:14;;;;;;;7.20;2.60;;;23.80;90.10;;;;;;4996665;28;20051;-90
2023/06/15 08:41:44;;;;;;;5.90;2.50;;;23.80;88.40;;;;;;4998556;28;20160;-87
2023/06/15 08:44:15;;;;;;;5.15;2.50;;;23.80;88.70;;;;;;4991855;28;20038;-89
2023/06/15 08:46:42;;;;;;;7.13;2.58;;;23.90;88.00;;;;;;4997967;28;20045;-89
2023/06/15 08:49:08;;;;;;;4.20;2.72;;;23.80;87.20;;;;;;5000480;28;20042;-88
2023/06/15 08:51:36;;;;;;;7.20;2.50;;;23.80;86.70;;;;;;5005153;28;20097;-88
2023/06/15 08:54:04;;;;;;;4.78;2.30;;;23.90;87.10;;;;;;4984746;28;20659;-89
2023/06/15 08:56:31;;;;;;;6.25;2.75;;;23.90;87.10;;;;;;4987091;28;20108;-89
2023/06/15 08:58:57;;;;;;;7.40;2.38;;;23.90;86.90;;;;;;5002586;28;20093;-89
2023/06/15 09:01:23;;;;;;;8.75;2.25;;;24.10;86.60;;;;;;4997018;28;20050;-89
2023/06/15 09:03:54;;;;;;;4.45;2.10;;;24.10;86.80;;;;;;5003694;28;20050;-87
2023/06/15 09:06:24;;;;;;;5.85;2.30;;;24.10;86.50;;;;;;4981324;28;20113;-88
2023/06/15 09:08:51;;;;;;;7.25;2.72;;;24.20;86.50;;;;;;4986113;28;20046;-88
2023/06/15 09:11:17;;;;;;;7.47;2.65;;;24.20;86.20;;;;;;4990448;28;20031;-88
2023/06/15 09:13:44;;;;;;;6.55;2.55;;;24.30;86.50;;;;;;4996409;28;20060;-88
2023/06/15 09:16:11;;;;;;;6.38;2.50;;;24.40;85.80;;;;;;4992856;28;20057;-88
2023/06/15 09:18:45;;;;;;;8.40;2.28;;;24.40;84.70;;;;;;4997968;28;20035;-90
2023/06/15 09:21:13;;;;;;;6.90;2.70;;;24.40;82.70;;;;;;4993983;28;20050;-89
2023/06/15 09:23:44;;;;;;;7.63;2.65;;;24.40;84.60;;;;;;5005451;28;20038;-91
2023/06/15 09:26:23;;;;;;;6.28;2.50;;;24.40;84.70;;;;;;4978062;28;20046;-90
2023/06/15 09:28:48;;;;;;;7.95;2.38;;;24.40;84.30;;;;;;5003842;28;20478;-88
2023/06/15 09:31:34;;;;;;;7.30;2.45;;;24.50;85.20;;;;;;4992674;28;20038;-87
2023/06/15 09:34:12;;;;;;;5.72;2.10;;;24.60;84.50;;;;;;4989736;28;20070;-89
2023/06/15 09:36:48;;;;;;;6.38;2.22;;;24.60;84.20;;;;;;5001916;28;20500;-88
2023/06/15 09:39:16;;;;;;;5.97;2.28;;;24.60;83.90;;;;;;4999936;28;20038;-88
2023/06/15 09:41:52;;;;;;;5.82;2.30;;;24.70;83.80;;;;;;5006784;28;20042;-88
2023/06/15 09:44:21;;;;;;;5.28;2.10;;;24.70;83.20;;;;;;5000797;28;20100;-88
2023/06/15 09:46:49;;;;;;;7.80;2.58;;;24.80;83.30;;;;;;5001349;28;20034;-89
2023/06/15 09:49:23;;;;;;;9.07;2.50;;;24.90;83.60;;;;;;5000225;28;20623;-89
2023/06/15 09:51:50;;;;;;;7.20;2.22;;;24.90;82.50;;;;;;4992786;28;20497;-89
2023/06/15 09:54:23;;;;;;;5.60;2.22;;;25.00;82.30;;;;;;5008656;28;20045;-88
2023/06/15 09:56:51;;;;;;;7.80;2.63;;;25.00;81.30;;;;;;4972766;28;20108;-89
2023/06/15 09:59:17;;;;;;;4.88;2.40;;;25.10;82.30;;;;;;4972955;28;20481;-89
2023/06/15 10:01:47;;;;;;;6.28;2.13;;;25.20;82.60;;;;;;5004437;28;20053;-90
2023/06/15 10:04:15;;;;;;;5.70;2.60;;;25.30;82.30;;;;;;4993572;28;20041;-91
2023/06/15 10:06:43;;;;;;;6.95;2.30;;;25.30;82.10;;;;;;5009308;28;20037;-89
2023/06/15 10:09:11;;;;;;;4.78;2.20;;;25.30;81.20;;;;;;5006474;28;20100;-90
2023/06/15 10:11:41;;;;;;;7.63;2.60;;;25.40;81.80;;;;;;5002386;28;20124;-90
2023/06/15 10:14:21;;;;;;;4.57;2.15;;;25.50;81.60;;;;;;5006470;28;20042;-89
2023/06/15 10:16:53;;;;;;;6.13;2.20;;;25.50;82.00;;;;;;4999235;28;20038;-88
2023/06/15 10:19:22;;;;;;;5.93;2.33;;;25.60;81.60;;;;;;4995721;28;20054;-89
2023/06/15 10:21:48;;;;;;;5.70;2.30;;;25.70;80.10;;;;;;5005298;28;20049;-90
2023/06/15 10:24:19;;;;;;;7.35;2.38;;;25.80;79.10;;;;;;4995036;28;20080;-90
2023/06/15 10:26:45;;;;;;;6.95;2.58;;;25.90;78.60;;;;;;4997576;28;20049;-88
2023/06/15 10:29:34;;;;;;;7.30;2.40;;;25.90;78.40;;;;;;4990714;28;20125;-89
2023/06/15 10:32:16;;;;;;;5.15;2.38;;;25.90;79.40;;;;;;4991374;28;20030;-90
2023/06/15 10:35:07;;;;;;;5.88;3.00;;;26.00;78.20;;;;;;4991490;28;20043;-89
2023/06/15 10:37:48;;;;;;;7.20;2.50;;;26.00;78.90;;;;;;4991216;28;20048;-89
2023/06/15 10:40:20;;;;;;;5.70;2.30;;;26.00;76.60;;;;;;5002469;28;20062;-89
2023/06/15 10:42:49;;;;;;;5.97;2.30;;;26.00;78.90;;;;;;4991369;28;20050;-92
2023/06/15 10:45:28;;;;;;;8.82;2.40;;;26.10;79.70;;;;;;5011846;28;20049;-96
2023/06/15 10:47:56;;;;;;;7.25;2.63;;;26.20;80.60;;;;;;5009171;28;20045;-91
2023/06/15 10:50:22;;;;;;;6.97;2.25;;;26.30;78.70;;;;;;4999407;28;20034;-87
2023/06/15 10:52:50;;;;;;;6.85;2.40;;;26.30;79.00;;;;;;5001499;28;20509;-92
2023/06/15 10:55:16;;;;;;;7.25;2.38;;;26.40;79.00;;;;;;5011688;28;20042;-91
2023/06/15 10:57:41;;;;;;;4.90;2.13;;;26.50;79.90;;;;;;4992217;28;20505;-91
2023/06/15 11:00:10;;;;;;;4.45;2.15;;;26.60;81.80;;;;;;4999262;28;20045;-91
2023/06/15 11:02:35;;;;;;;6.45;2.22;;;26.70;79.30;;;;;;4992626;28;20064;-92
2023/06/15 11:05:08;;;;;;;9.93;2.38;;;26.70;77.10;;;;;;5006802;28;20500;-92
2023/06/15 11:07:45;;;;;;;11.02;2.25;;;26.80;77.80;;;;;;4985037;28;20584;-88
2023/06/15 11:10:15;;;;;;;5.25;2.13;;;26.80;74.80;;;;;;4982925;28;20146;-91
2023/06/15 11:12:43;;;;;;;8.55;2.92;;;26.90;75.30;;;;;;5000964;28;20269;-93
2023/06/15 11:15:14;;;;;;;6.90;2.55;;;26.90;75.90;;;;;;5004123;28;20042;-94
2023/06/15 11:17:55;;;;;;;6.72;2.33;;;27.00;76.70;;;;;;5003185;28;20042;-93
2023/06/15 11:20:39;;;;;;;4.22;2.05;;;27.00;74.30;;;;;;5000631;28;20137;-93
2023/06/15 11:23:10;;;;;;;6.78;2.38;;;27.00;74.80;;;;;;4991375;28;20053;-92
2023/06/15 11:25:37;;;;;;;6.97;2.28;;;27.10;76.20;;;;;;5005124;28;20034;-92
2023/06/15 11:28:06;;;;;;;8.63;2.65;;;27.10;75.10;;;;;;5018424;28;20057;-92
2023/06/15 11:30:33;;;;;;;10.70;3.00;;;27.10;74.40;;;;;;5014242;28;20030;-91
2023/06/15 11:32:59;;;;;;;5.38;2.30;;;27.20;76.00;;;;;;4993837;28;20038;-92
2023/06/15 11:35:24;;;;;;;19.40;3.28;;;27.30;76.00;;;;;;5007795;28;20483;-92
2023/06/15 11:37:50;;;;;;;8.00;2.63;;;27.40;75.70;;;;;;4994403;28;20042;-86
2023/06/15 11:40:16;;;;;;;7.13;2.58;;;27.30;75.50;;;;;;5003352;28;20425;-88
2023/06/15 11:42:42;;;;;;;4.85;2.53;;;27.40;74.10;;;;;;4975533;28;20034;-89
2023/06/15 11:45:18;;;;;;;3.78;2.17;;;27.40;74.80;;;;;;4994224;28;20053;-89
2023/06/15 11:47:45;;;;;;;5.68;2.33;;;27.40;74.90;;;;;;4979913;28;20041;-89
2023/06/15 11:50:11;;;;;;;7.00;2.45;;;27.50;75.10;;;;;;4985547;28;20054;-86
2023/06/15 11:52:47;;;;;;;5.75;2.53;;;27.40;74.40;;;;;;5006637;28;20050;-87
2023/06/15 11:55:15;;;;;;;7.00;2.60;;;27.60;74.80;;;;;;4991664;28;20048;-87
2023/06/15 11:57:43;;;;;;;5.22;2.22;;;27.70;74.80;;;;;;4996716;28;20496;-86
2023/06/15 12:00:10;;;;;;;6.15;2.25;;;27.80;73.10;;;;;;4994198;28;20523;-87
2023/06/15 12:02:37;;;;;;;9.32;2.15;;;27.80;73.50;;;;;;4987423;28;20066;-86
2023/06/15 12:05:03;;;;;;;7.13;1.98;;;28.00;72.70;;;;;;5002708;28;20444;-87
2023/06/15 12:07:34;;;;;;;4.32;1.92;;;28.00;73.30;;;;;;5000170;28;20042;-89
2023/06/15 12:10:01;;;;;;;5.15;2.08;;;28.00;74.50;;;;;;4993540;28;20041;-88
2023/06/15 12:12:30;;;;;;;6.38;2.47;;;28.10;74.30;;;;;;4996162;28;20045;-87
2023/06/15 12:14:58;;;;;;;5.15;2.20;;;28.20;74.10;;;;;;4996902;28;20042;-87
2023/06/15 12:17:31;;;;;;;6.55;2.65;;;28.30;74.30;;;;;;4991336;28;20041;-87
2023/06/15 12:20:07;;;;;;;5.18;2.00;;;28.40;72.50;;;;;;4984433;28;20100;-88
2023/06/15 12:22:45;;;;;;;4.90;2.20;;;28.50;74.70;;;;;;4996376;28;20476;-84
2023/06/15 12:25:14;;;;;;;6.00;3.38;;;28.40;72.40;;;;;;4980536;28;20054;-84
2023/06/15 12:27:45;;;;;;;7.57;2.83;;;28.50;72.90;;;;;;4984332;28;20133;-94
2023/06/15 12:30:20;;;;;;;5.97;2.40;;;28.50;73.60;;;;;;4995704;28;20056;-93
2023/06/15 12:32:47;;;;;;;4.63;2.00;;;28.60;69.90;;;;;;4989331;28;20045;-86
2023/06/15 12:35:32;;;;;;;5.10;2.38;;;28.50;73.30;;;;;;5001368;28;20046;-85
2023/06/15 12:37:57;;;;;;;6.22;2.67;;;28.60;76.40;;;;;;5009900;28;20131;-86
2023/06/15 12:40:23;;;;;;;5.93;2.08;;;28.60;73.50;;;;;;5005542;28;20045;-86
2023/06/15 12:43:03;;;;;;;5.00;2.22;;;28.60;73.50;;;;;;5008707;28;20081;-86
2023/06/15 12:45:29;;;;;;;5.78;2.20;;;28.60;73.90;;;;;;4993440;28;20400;-84
2023/06/15 12:47:56;;;;;;;7.47;2.50;;;28.70;72.60;;;;;;4989544;28;20129;-83